createdAt,value
2023-01-27T00:02:12.404Z,2.22
2023-01-27T00:04:43.105Z,2.17
2023-01-27T00:07:14.640Z,2.04
2023-01-27T00:09:45.770Z,2.11
2023-01-27T00:12:39.246Z,2.26
2023-01-27T00:15:10.759Z,1.98
2023-01-27T00:17:40.655Z,1.99
2023-01-27T00:20:15.785Z,2.16
2023-01-27T00:23:03.308Z,2.13
2023-01-27T00:25:35.585Z,2.35
2023-01-27T00:28:08.431Z,2.31
2023-01-27T00:30:38.914Z,2.28
2023-01-27T00:33:29.536Z,2.24
2023-01-27T00:36:05.772Z,1.99
2023-01-27T00:38:42.014Z,2.17
2023-01-27T00:41:24.895Z,2.14
2023-01-27T00:43:54.930Z,2.26
2023-01-27T00:46:34.082Z,2.14
2023-01-27T00:49:11.188Z,2.06
2023-01-27T00:51:43.320Z,2.07
2023-01-27T00:54:15.854Z,2.25
2023-01-27T00:56:48.527Z,2.16
2023-01-27T00:59:20.831Z,2.14
2023-01-27T01:01:51.022Z,2.27
2023-01-27T01:04:21.455Z,2.38
2023-01-27T01:07:00.628Z,1.99
2023-01-27T01:09:39.529Z,2.14
2023-01-27T01:12:10.823Z,2.08
2023-01-27T01:14:41.916Z,2.14
2023-01-27T01:17:25.753Z,2.17
2023-01-27T01:19:57.975Z,2.31
2023-01-27T01:22:34.213Z,2.04
2023-01-27T01:25:08.184Z,2.11
2023-01-27T01:27:37.923Z,2.13
2023-01-27T01:30:14.170Z,2.17
2023-01-27T01:32:46.279Z,2.21
2023-01-27T01:35:25.048Z,2.45
2023-01-27T01:37:58.340Z,2.33
2023-01-27T01:40:30.714Z,2.11
2023-01-27T01:43:00.834Z,2.09
2023-01-27T01:45:54.804Z,2.04
2023-01-27T01:48:36.175Z,2.07
2023-01-27T01:51:18.818Z,2.08
2023-01-27T01:57:01.784Z,2.48
2023-01-27T01:59:36.543Z,2.30
2023-01-27T02:02:07.168Z,2.29
2023-01-27T02:04:42.805Z,2.24
2023-01-27T02:07:18.115Z,2.25
2023-01-27T02:09:59.030Z,2.32
2023-01-27T02:12:30.846Z,2.19
2023-01-27T02:15:14.868Z,2.14
2023-01-27T02:17:49.082Z,2.14
2023-01-27T02:20:23.748Z,2.40
2023-01-27T02:23:01.755Z,2.14
2023-01-27T02:25:39.725Z,2.10
2023-01-27T02:28:12.048Z,2.11
2023-01-27T02:30:42.130Z,2.43
2023-01-27T02:33:25.254Z,2.09
2023-01-27T02:36:00.286Z,1.98
2023-01-27T02:38:39.153Z,2.12
2023-01-27T02:41:17.310Z,2.28
2023-01-27T02:43:52.390Z,2.19
2023-01-27T02:46:23.351Z,2.01
2023-01-27T02:48:54.079Z,2.14
2023-01-27T02:51:33.001Z,2.29
2023-01-27T02:54:03.803Z,2.10
2023-01-27T02:56:34.674Z,2.18
2023-01-27T02:59:04.465Z,2.14
2023-01-27T03:01:41.888Z,2.22
2023-01-27T03:04:12.643Z,2.49
2023-01-27T03:06:50.360Z,2.09
2023-01-27T03:09:21.384Z,2.12
2023-01-27T03:12:09.488Z,2.29
2023-01-27T03:14:58.928Z,2.10
2023-01-27T03:17:45.800Z,2.08
2023-01-27T03:20:24.656Z,1.95
2023-01-27T03:22:58.749Z,1.98
2023-01-27T03:25:28.933Z,2.00
2023-01-27T03:28:06.762Z,2.02
2023-01-27T03:30:46.563Z,2.19
2023-01-27T03:33:23.591Z,2.04
2023-01-27T03:36:30.509Z,2.19
2023-01-27T03:39:18.004Z,2.04
2023-01-27T03:42:05.474Z,2.00
2023-01-27T03:44:59.168Z,2.10
2023-01-27T03:47:33.716Z,2.21
2023-01-27T03:50:19.565Z,2.15
2023-01-27T03:53:03.468Z,2.20
2023-01-27T03:55:34.849Z,1.95
2023-01-27T03:58:17.051Z,1.97
2023-01-27T04:00:47.697Z,1.96
2023-01-27T04:03:34.549Z,1.83
2023-01-27T04:06:26.293Z,1.80
2023-01-27T04:08:57.581Z,1.93
2023-01-27T04:11:44.430Z,2.07
2023-01-27T04:14:20.964Z,2.00
2023-01-27T04:16:58.922Z,1.90
2023-01-27T04:19:29.886Z,2.20
2023-01-27T04:22:09.470Z,2.09
2023-01-27T04:24:38.922Z,2.19
2023-01-27T04:27:26.302Z,2.00
2023-01-27T04:29:59.514Z,1.84
2023-01-27T04:32:36.962Z,1.96
2023-01-27T04:35:10.728Z,1.96
2023-01-27T04:37:43.570Z,1.92
2023-01-27T04:40:13.568Z,1.94
2023-01-27T04:42:46.111Z,1.76
2023-01-27T04:45:27.063Z,1.79
2023-01-27T04:47:58.165Z,1.83
2023-01-27T04:50:29.717Z,1.97
2023-01-27T04:52:59.233Z,1.59
2023-01-27T04:55:32.886Z,1.67
2023-01-27T04:58:06.353Z,1.91
2023-01-27T05:00:35.931Z,1.76
2023-01-27T05:03:10.329Z,2.03
2023-01-27T05:05:41.571Z,1.85
2023-01-27T05:08:13.857Z,1.91
2023-01-27T05:10:52.933Z,1.94
2023-01-27T05:13:21.540Z,1.91
2023-01-27T05:15:50.890Z,1.76
2023-01-27T05:18:25.244Z,1.96
2023-01-27T05:20:56.519Z,2.18
2023-01-27T05:23:41.283Z,2.13
2023-01-27T05:26:13.735Z,1.91
2023-01-27T05:28:44.614Z,1.95
2023-01-27T05:31:16.449Z,2.02
2023-01-27T05:33:51.321Z,1.87
2023-01-27T05:36:30.453Z,1.79
2023-01-27T05:39:01.373Z,1.92
2023-01-27T05:41:39.565Z,1.95
2023-01-27T05:44:12.774Z,1.92
2023-01-27T05:46:42.969Z,1.73
2023-01-27T05:49:13.762Z,1.85
2023-01-27T05:51:44.698Z,1.68
2023-01-27T05:54:21.141Z,1.84
2023-01-27T05:56:51.229Z,1.99
2023-01-27T05:59:20.797Z,2.16
2023-01-27T06:01:48.913Z,1.96
2023-01-27T06:04:23.519Z,1.75
2023-01-27T06:06:52.767Z,1.94
2023-01-27T06:09:27.347Z,1.78
2023-01-27T06:11:55.914Z,2.02
2023-01-27T06:14:27.113Z,1.81
2023-01-27T06:16:56.359Z,1.90
2023-01-27T06:19:28.989Z,1.67
2023-01-27T06:22:06.147Z,1.86
2023-01-27T06:24:42.681Z,1.77
2023-01-27T06:27:14.972Z,1.77
2023-01-27T06:29:46.864Z,1.85
2023-01-27T06:32:16.285Z,1.80
2023-01-27T06:34:49.349Z,1.88
2023-01-27T06:37:20.585Z,1.92
2023-01-27T06:39:49.379Z,2.05
2023-01-27T06:42:22.087Z,1.88
2023-01-27T06:44:50.403Z,1.75
2023-01-27T06:47:22.045Z,1.70
2023-01-27T06:49:51.742Z,1.65
2023-01-27T06:52:34.354Z,1.76
2023-01-27T06:55:09.410Z,1.83
2023-01-27T06:57:45.891Z,1.70
2023-01-27T07:00:20.477Z,1.69
2023-01-27T07:02:51.265Z,1.61
2023-01-27T07:05:28.905Z,1.82
2023-01-27T07:08:06.741Z,1.78
2023-01-27T07:10:38.929Z,1.91
2023-01-27T07:13:08.657Z,2.11
2023-01-27T07:15:40.029Z,2.01
2023-01-27T07:18:10.996Z,1.88
2023-01-27T07:20:43.516Z,1.86
2023-01-27T07:23:22.015Z,1.85
2023-01-27T07:25:51.399Z,1.70
2023-01-27T07:28:21.208Z,1.72
2023-01-27T07:30:52.092Z,1.97
2023-01-27T07:33:29.091Z,1.90
2023-01-27T07:36:02.750Z,2.00
2023-01-27T07:38:34.550Z,1.85
2023-01-27T07:41:06.413Z,1.89
2023-01-27T07:43:36.316Z,2.00
2023-01-27T07:46:10.802Z,1.99
2023-01-27T07:48:40.059Z,2.01
2023-01-27T07:51:21.960Z,2.01
2023-01-27T07:53:53.077Z,2.11
2023-01-27T07:56:24.088Z,1.86
2023-01-27T07:58:58.616Z,1.78
2023-01-27T08:01:27.555Z,1.92
2023-01-27T08:04:04.781Z,2.16
2023-01-27T08:06:39.392Z,2.01
2023-01-27T08:09:11.894Z,2.11
2023-01-27T08:11:41.816Z,2.09
2023-01-27T08:14:11.152Z,2.06
2023-01-27T08:16:39.800Z,1.86
2023-01-27T08:19:08.975Z,2.16
2023-01-27T08:21:50.768Z,1.86
2023-01-27T08:24:21.424Z,1.88
2023-01-27T08:26:58.149Z,1.91
2023-01-27T08:29:26.567Z,2.06
2023-01-27T08:31:57.683Z,1.92
2023-01-27T08:34:29.406Z,2.30
2023-01-27T08:36:59.884Z,1.90
2023-01-27T08:39:29.442Z,2.01
2023-01-27T08:42:01.210Z,2.18
2023-01-27T08:44:37.831Z,2.12
2023-01-27T08:47:08.922Z,2.19
2023-01-27T08:49:43.323Z,2.14
2023-01-27T08:52:32.025Z,1.99
2023-01-27T08:55:06.761Z,2.19
2023-01-27T08:57:39.362Z,1.86
2023-01-27T09:00:15.732Z,2.21
2023-01-27T09:02:49.215Z,1.98
2023-01-27T09:05:22.498Z,1.85
2023-01-27T09:07:58.116Z,2.16
2023-01-27T09:10:41.581Z,2.10
2023-01-27T09:13:15.196Z,2.12
2023-01-27T09:15:46.532Z,2.14
2023-01-27T09:18:15.988Z,1.93
2023-01-27T09:20:52.043Z,2.05
2023-01-27T09:23:24.166Z,2.22
2023-01-27T09:25:52.692Z,1.92
2023-01-27T09:28:22.989Z,1.75
2023-01-27T09:33:57.985Z,2.16
2023-01-27T09:36:29.463Z,2.04
2023-01-27T09:39:10.819Z,1.81
2023-01-27T09:42:26.993Z,1.90
2023-01-27T09:45:22.786Z,1.79
2023-01-27T09:48:13.627Z,1.74
2023-01-27T09:50:48.045Z,1.70
2023-01-27T09:57:10.920Z,1.87
2023-01-27T10:00:18.758Z,1.99
2023-01-27T10:03:11.443Z,1.97
2023-01-27T10:06:27.768Z,1.91
2023-01-27T10:09:43.845Z,2.07
2023-01-27T10:12:34.661Z,1.70
2023-01-27T10:15:17.322Z,1.80
2023-01-27T10:17:57.556Z,1.71
2023-01-27T10:20:41.127Z,1.67
2023-01-27T10:23:19.226Z,1.75
2023-01-27T10:25:56.770Z,1.93
2023-01-27T10:28:35.283Z,2.03
2023-01-27T10:31:10.652Z,1.88
2023-01-27T10:33:52.228Z,1.83
2023-01-27T10:36:34.167Z,1.93
2023-01-27T10:39:14.028Z,2.07
2023-01-27T10:42:03.917Z,2.09
2023-01-27T10:44:55.376Z,2.08
2023-01-27T10:47:39.217Z,2.01
2023-01-27T10:50:17.524Z,1.66
2023-01-27T10:56:04.641Z,1.80
2023-01-27T10:58:51.616Z,1.83
2023-01-27T11:01:30.777Z,2.05
2023-01-27T11:04:04.011Z,1.94
2023-01-27T11:06:46.263Z,1.91
2023-01-27T11:09:29.213Z,1.99
2023-01-27T11:12:12.318Z,1.93
2023-01-27T11:18:06.180Z,1.93
2023-01-27T11:20:54.422Z,1.66
2023-01-27T11:23:29.611Z,1.65
2023-01-27T11:26:10.448Z,1.80
2023-01-27T11:28:46.089Z,1.89
2023-01-27T11:31:37.375Z,1.98
2023-01-27T11:34:19.795Z,1.65
2023-01-27T11:36:51.843Z,1.70
2023-01-27T11:43:15.146Z,1.73
2023-01-27T11:45:53.478Z,1.85
2023-01-27T11:48:24.324Z,1.80
2023-01-27T11:51:10.403Z,1.76
2023-01-27T11:54:23.413Z,1.73
2023-01-27T11:56:56.322Z,1.84
2023-01-27T11:59:32.616Z,1.61
2023-01-27T12:02:17.229Z,1.64
2023-01-27T12:04:52.991Z,1.55
2023-01-27T12:07:39.506Z,1.80
2023-01-27T12:10:33.344Z,1.91
2023-01-27T12:13:17.792Z,1.71
2023-01-27T12:15:52.940Z,1.93
2023-01-27T12:18:25.521Z,1.89
2023-01-27T12:21:02.943Z,2.03
2023-01-27T12:23:41.277Z,2.01
2023-01-27T12:26:17.492Z,1.92
2023-01-27T12:28:53.823Z,2.09
2023-01-27T12:31:28.264Z,2.13
2023-01-27T12:34:01.540Z,2.03
2023-01-27T12:36:43.128Z,2.17
2023-01-27T12:39:45.357Z,2.22
2023-01-27T12:42:45.980Z,2.28
2023-01-27T12:45:29.192Z,2.31
2023-01-27T12:48:08.569Z,2.08
2023-01-27T12:51:10.130Z,2.23
2023-01-27T12:53:53.010Z,2.33
2023-01-27T12:56:25.507Z,2.30
2023-01-27T12:59:03.898Z,2.46
2023-01-27T13:01:38.347Z,2.29
2023-01-27T13:04:13.989Z,2.07
2023-01-27T13:06:47.783Z,2.27
2023-01-27T13:09:30.303Z,2.38
2023-01-27T13:12:04.440Z,2.18
2023-01-27T13:14:44.241Z,2.35
2023-01-27T13:17:34.975Z,2.48
2023-01-27T13:20:10.284Z,2.24
2023-01-27T13:22:51.648Z,2.41
2023-01-27T13:25:30.099Z,2.37
2023-01-27T13:28:03.197Z,2.22
2023-01-27T13:30:50.787Z,2.21
2023-01-27T13:33:40.548Z,2.09
2023-01-27T13:36:21.549Z,2.27
2023-01-27T13:38:55.705Z,2.03
2023-01-27T13:41:34.280Z,2.26
2023-01-27T13:44:12.601Z,2.12
2023-01-27T13:46:45.064Z,2.18
2023-01-27T13:49:27.150Z,2.15
2023-01-27T13:52:00.377Z,2.17
2023-01-27T13:54:32.438Z,2.20
2023-01-27T13:57:34.459Z,1.98
2023-01-27T14:00:12.644Z,2.04
2023-01-27T14:03:20.965Z,1.86
2023-01-27T14:06:08.776Z,1.79
2023-01-27T14:08:52.597Z,1.97
2023-01-27T14:11:30.409Z,1.93
2023-01-27T14:14:11.832Z,2.07
2023-01-27T14:16:48.398Z,1.91
2023-01-27T14:19:39.452Z,1.89
2023-01-27T14:22:21.278Z,2.00
2023-01-27T14:24:56.879Z,2.17
2023-01-27T14:37:38.638Z,1.77
2023-01-27T14:40:25.943Z,1.71
2023-01-27T14:43:13.287Z,1.75
2023-01-27T14:45:47.713Z,1.76
2023-01-27T14:48:34.162Z,1.81
2023-01-27T14:51:11.300Z,1.81
2023-01-27T15:00:01.130Z,1.66
2023-01-27T15:06:02.430Z,1.70
2023-01-27T15:08:43.933Z,1.66
2023-01-27T15:11:33.649Z,1.55
2023-01-27T15:14:23.638Z,1.53
2023-01-27T15:17:18.762Z,1.45
2023-01-27T15:20:05.962Z,1.41
2023-01-27T15:22:53.102Z,1.65
2023-01-27T15:38:05.663Z,1.13
2023-01-27T15:40:59.492Z,1.21
2023-01-27T15:46:32.407Z,1.16
2023-01-27T15:49:17.518Z,1.13
2023-01-27T15:51:52.639Z,1.17
2023-01-27T15:54:27.874Z,1.26
2023-01-27T15:57:12.939Z,1.03
2023-01-27T16:02:48.061Z,0.79
2023-01-27T16:05:25.700Z,1.22
2023-01-27T16:08:01.959Z,1.12
2023-01-27T16:10:46.942Z,0.95
2023-01-27T16:16:44.012Z,0.69
2023-01-27T16:28:54.873Z,0.76
2023-01-27T16:31:28.244Z,0.78
2023-01-27T16:40:19.788Z,0.87
2023-01-27T16:42:57.536Z,0.66
2023-01-27T17:24:34.539Z,0.86
2023-01-27T17:27:18.229Z,0.94
2023-01-27T17:45:34.498Z,0.76
2023-01-27T17:51:28.486Z,0.58
2023-01-27T18:17:50.352Z,0.48
2023-01-27T18:38:52.342Z,0.34
2023-01-27T18:47:50.159Z,0.61
2023-01-27T18:50:31.925Z,0.67
2023-01-27T19:11:45.322Z,0.55
2023-01-27T19:23:46.593Z,0.57
2023-01-27T20:09:18.214Z,0.66
2023-01-27T21:22:19.007Z,0.33
2023-01-27T21:24:58.927Z,0.36
2023-01-27T21:27:44.685Z,0.59
2023-01-27T21:30:20.069Z,0.41
2023-01-27T21:33:00.515Z,0.36
2023-01-27T21:35:38.182Z,0.41
2023-01-27T21:38:21.780Z,0.35
2023-01-27T21:41:11.738Z,0.57
2023-01-27T21:54:12.573Z,0.42
2023-01-27T21:56:48.415Z,0.54
2023-01-27T21:59:31.925Z,0.53
2023-01-27T22:02:02.594Z,0.50
2023-01-27T22:04:34.194Z,0.60
2023-01-27T22:07:05.771Z,0.63
2023-01-27T22:09:43.002Z,0.63
2023-01-27T22:12:22.893Z,0.71
2023-01-27T22:15:05.466Z,0.71
2023-01-27T22:17:42.982Z,0.70
2023-01-27T22:20:20.237Z,0.67
2023-01-27T22:22:57.024Z,0.62
2023-01-27T22:25:35.437Z,0.77
2023-01-27T22:28:10.826Z,0.63
2023-01-27T22:30:42.904Z,0.73
2023-01-27T22:33:16.887Z,0.56
2023-01-27T22:35:45.586Z,0.40
2023-01-27T22:38:22.585Z,0.61
2023-01-27T22:40:57.733Z,0.56
2023-01-27T22:43:29.949Z,0.56
2023-01-27T22:46:19.583Z,0.74
2023-01-27T22:49:00.716Z,0.57
2023-01-27T22:51:37.084Z,0.56
2023-01-27T22:54:06.132Z,0.78
2023-01-27T22:56:53.471Z,0.81
2023-01-27T22:59:32.353Z,0.64
2023-01-27T23:02:09.021Z,0.83
2023-01-27T23:04:41.683Z,0.57
2023-01-27T23:07:16.818Z,0.58
2023-01-27T23:09:48.838Z,0.69
2023-01-27T23:12:25.127Z,0.76
2023-01-27T23:15:05.298Z,0.79
2023-01-27T23:17:36.752Z,0.76
2023-01-27T23:20:09.293Z,0.88
2023-01-27T23:22:39.109Z,0.77
2023-01-27T23:25:15.967Z,0.68
2023-01-27T23:27:49.049Z,0.76
2023-01-27T23:30:33.946Z,0.76
2023-01-27T23:33:04.598Z,0.65
2023-01-27T23:35:35.957Z,0.68
2023-01-27T23:38:22.677Z,0.61
2023-01-27T23:40:58.252Z,1.24
2023-01-27T23:43:31.871Z,0.65
2023-01-27T23:46:09.706Z,0.58
2023-01-27T23:48:39.125Z,0.51
2023-01-27T23:51:19.306Z,0.60
2023-01-27T23:53:51.490Z,0.58
2023-01-27T23:56:22.622Z,0.66
2023-01-27T23:58:54.030Z,0.75
